Eltham, Virginia
Current Conditions -  °F | °C
As of 10:15 AM on Monday 24 Nov 2014 (Local Time) from KFYJ Reporting Station
Scattered Clouds Scattered Clouds  
Wind Chill: 71°   Ceiling: Unl
Heat Index: 71°   Visibility: 10mi
Dew Point: 57°   Wind: 13mph
Humidity: 63%   Direction: 200°SSW
Pressure: 29.79"   Gusts: 21mph
Location:  37.6069°N, 76.8926°W
Report Text: KFYJ 241515Z AUTO 20011G18KT 10SM SCT025 22/14 A2979 RMK AO2 T02150141
Loading
Personal Weather Stations






























Interactive Weather Map New forecast layout! Learn more

10-Day Weather Forecast

Advertisements
Track Severe Weather on mobile